Aérodrome :
LOGIN :

S'inscrire | Disclaimer

   EN    FR    IT 

 










Légende :    VFR   VFR Marginal   IFR   IFR Intensif   IFR Très Intensif
Visi : 
Plafond : 
>= 8 km
>= 3000ft
5 à 8 km
1000 à 3000 ft
1500m à 5 km
500 à 1000 ft
800 à 1500m
200 à 500 ft
< 800m
< 200 ft
Symboles :   Orages  Brouillard  Fortes neiges  Fortes précipitations  Vent > 20 kt
SIGMETs :   Divers  Orages  Givrage  Turbulence  Onde Orograph.  Cendres Volcan.







- Altitude de l'aérodrome : 5600 ft
- Code IATA : SMV


LSZS - Samedan

DERNIER METAR :
  • 222350Z AUTO VRB04KT 9999 NCD M04/M08 Q1016

METARs EXPIRÉS :
  • 222320Z AUTO 21005KT 190V290 9999 NCD M02/M06 Q1016
  • 222250Z AUTO VRB03KT 9999 NCD M03/M07 Q1016
  • 222220Z AUTO 22005KT 9999 NCD M01/M06 Q1016
  • 222150Z AUTO 20006KT 140V250 9999 NCD M02/M06 Q1016
  • 222120Z AUTO 21003KT 130V310 9999 NCD M01/M06 Q1016

Prévision TAF périmée.
ATIS : +41 81 834 93 24
Pas de NOTAMs connus pour ce terrain.



MET'MAP, la Météo Aéronautique d'un coup d'oeil ! - Copyright ORBIFLY Décembre 2007 - Disclaimer

ORBIFLY MET'MAP TEAM :

Programmation & Développement : Alexandra Zaïnal
Conception & Développement : Baudouin d'Aumeries
Co-Programmation & Développement : Marc-Olivier Méhu
Soutien technique & logistique : Manuel Goepfert

Contact : metmap@orbifly.com




SOURCES & CREDITS :

   NOAA